CDT,Max TemperatureF,Mean TemperatureF,Min TemperatureF,Max Dew PointF,MeanDew PointF,Min DewpointF,Max Humidity, Mean Humidity, Min Humidity, Max Sea Level PressureIn, Mean Sea Level PressureIn, Min Sea Level PressureIn, Max VisibilityMiles, Mean VisibilityMiles, Min VisibilityMiles, Max Wind SpeedMPH, Mean Wind SpeedMPH, Max Gust SpeedMPH,PrecipitationIn, CloudCover, Events, WindDirDegrees
2013-4-1,66,52,37,44,41,37,100,72,43,30.16,30.09,29.99,10,10,10,17,5,22,T,2,Rain,45
2013-4-2,44,40,36,37,35,31,100,85,70,30.27,30.20,30.16,10,8,3,16,8,23,0.70,8,Rain,52
2013-4-3,48,42,36,39,26,20,75,57,38,30.25,30.20,30.17,10,10,10,23,8,33,0.00,7,Rain,67
2013-4-4,55,46,36,42,36,30,93,67,41,30.17,30.12,30.07,10,10,8,12,3,18,0.02,7,Rain,22
2013-4-5,70,50,30,37,33,29,100,64,28,30.22,30.12,29.99,10,10,6,16,5,23,0.00,0,,193
2013-4-6,74,62,49,47,43,35,83,59,35,29.97,29.89,29.81,10,10,10,31,11,38,0.00,0,,196
2013-4-7,74,61,48,57,52,46,93,75,57,29.92,29.85,29.75,10,10,10,23,9,31,0.00,4,,178
2013-4-8,72,64,56,59,57,53,90,76,61,29.82,29.76,29.72,10,10,9,22,10,29,0.09,6,Rain-Thunderstorm,153
2013-4-9,80,72,63,62,59,56,81,65,48,29.79,29.74,29.70,10,10,10,25,14,33,0.00,5,,163
2013-4-10,73,56,38,65,47,36,100,84,68,29.90,29.81,29.71,10,8,2,22,10,32,0.78,8,Rain-Thunderstorm,296
2013-4-11,52,43,33,36,32,29,100,71,42,29.90,29.85,29.76,10,9,4,16,8,26,0.01,5,Snow,285
2013-4-12,58,45,32,39,33,29,96,68,40,30.04,29.95,29.84,10,10,10,17,6,21,0.00,0,,297
2013-4-13,68,54,39,47,41,36,86,63,39,30.07,29.96,29.80,10,10,10,17,6,23,0.02,3,Rain,175
2013-4-14,77,67,56,51,47,45,67,50,33,29.79,29.65,29.53,10,10,10,26,13,35,0.00,0,,178
2013-4-15,79,69,59,64,59,52,81,70,58,29.80,29.73,29.67,10,10,7,24,9,35,0.00,4,,172
2013-4-16,82,69,55,63,58,51,93,74,54,29.98,29.90,29.80,10,9,3,17,5,21,0.00,6,,122
2013-4-17,81,76,70,67,64,62,84,71,58,29.94,29.81,29.62,10,10,7,28,14,37,0.00,3,Rain,169
2013-4-18,74,56,37,67,52,28,100,83,65,30.02,29.72,29.52,10,8,0,31,14,43,1.61,8,Fog-Rain-Thunderstorm,252
2013-4-19,54,44,33,34,27,25,82,59,35,30.13,30.09,30.02,10,10,10,20,10,31,0.00,2,,273
2013-4-20,67,50,33,40,34,32,96,62,28,30.22,30.16,30.10,10,10,10,16,5,22,0.00,0,,172
2013-4-21,68,54,40,42,38,33,89,62,34,30.27,30.20,30.13,10,10,10,18,7,24,0.00,1,,158
2013-4-22,72,56,39,46,40,36,86,60,34,30.19,30.04,29.91,10,10,10,20,7,25,0.00,0,,165
2013-4-23,65,51,36,54,46,39,100,76,52,30.12,29.98,29.83,10,7,2,20,10,26,0.08,7,Rain,321
2013-4-24,55,44,32,36,31,25,100,66,32,30.35,30.24,30.13,10,10,4,16,7,22,T,4,,339
2013-4-25,70,49,27,41,30,24,100,60,20,30.39,30.31,30.21,10,10,10,9,1,14,0.00,0,,147
2013-4-26,58,53,48,52,44,35,100,72,43,30.28,30.19,30.12,10,9,3,17,7,25,0.84,8,Rain-Thunderstorm,104
2013-4-27,57,54,50,57,53,50,100,97,93,30.15,30.04,29.98,10,6,2,25,5,30,0.80,8,Rain-Thunderstorm,331
2013-4-28,75,62,49,55,51,48,100,73,46,30.04,29.98,29.88,10,10,8,8,2,14,0.00,4,,282
2013-4-29,82,65,47,61,54,48,100,70,39,29.91,29.85,29.78,10,10,10,20,8,28,0.00,0,,190
2013-4-30,80,64,48,58,51,44,100,65,30,29.87,29.83,29.80,10,10,2,22,8,29,0.00,0,,159